Time;durP1;ratioP1;P1;durP2;ratioP2;P2;SDS_P1;SDS_P2;PMS_P1;PMS_P2;Temp;Humidity;BMP_temperature;BMP_pressure;BME280_temperature;BME280_humidity;BME280_pressure;Samples;Min_cycle;Max_cycle;Signal;HPM_P1;HPM_P2
2022/01/08 00:00:22;;;;;;;;;;;;;;;-6.01;91.45;100187.08;1612227;87;20490;-72
2022/01/08 00:02:52;;;;;;;;;;;;;;;-6.06;91.63;100180.14;1634731;86;20123;-71
2022/01/08 00:05:19;;;;;;;;;;;;;;;-6.10;91.83;100171.36;1639318;86;20124;-72
2022/01/08 00:07:46;;;;;;;;;;;;;;;-6.15;92.04;100169.27;1640743;87;20128;-72
2022/01/08 00:10:16;;;;;;;;;;;;;;;-6.21;92.01;100182.05;1637914;87;20108;-72
2022/01/08 00:12:46;;;;;;;;;;;;;;;-6.25;92.40;100193.32;1639105;87;21963;-75
2022/01/08 00:15:18;;;;;;;;;;;;;;;-6.26;92.88;100199.17;1639996;86;20133;-75
2022/01/08 00:17:51;;;;;;;;;;;;;;;-6.24;93.24;100205.66;1639452;87;20134;-73
2022/01/08 00:20:22;;;;;;;;;;;;;;;-6.27;93.37;100217.56;1639351;86;20881;-73
2022/01/08 00:22:53;;;;;;;;;;;;;;;-6.29;93.57;100210.24;1637273;86;20092;-73
2022/01/08 00:25:23;;;;;;;;;;;;;;;-6.26;93.96;100207.19;1637868;87;21117;-73
2022/01/08 00:28:03;;;;;;;;;;;;;;;-6.24;94.12;100210.50;1621290;87;20120;-74
2022/01/08 00:30:30;;;;;;;;;;;;;;;-6.24;94.20;100213.68;1637070;86;20129;-74
2022/01/08 00:33:07;;;;;;;;;;;;;;;-6.25;94.36;100211.52;1624840;87;20092;-74
2022/01/08 00:35:40;;;;;;;;;;;;;;;-6.25;94.51;100203.50;1640648;86;20140;-74
2022/01/08 00:38:09;;;;;;;;;;;;;;;-6.27;94.43;100206.87;1621874;86;20137;-74
2022/01/08 00:40:53;;;;;;;;;;;;;;;-6.28;94.33;100205.73;1622413;87;20124;-74
2022/01/08 00:43:08;;;;;;;;;;;;;;;-6.32;94.20;100203.94;1626719;86;20149;-74
2022/01/08 00:45:38;;;;;;;;;;;;;;;-6.36;94.08;100202.19;1623285;87;20157;-74
2022/01/08 00:48:10;;;;;;;;;;;;;;;-6.42;94.13;100196.78;1628040;87;20212;-74
2022/01/08 00:50:37;;;;;;;;;;;;;;;-6.48;94.08;100194.36;1634205;86;21264;-72
2022/01/08 00:53:06;;;;;;;;;;;;;;;-6.51;94.29;100186.72;1638086;86;20670;-72
2022/01/08 00:55:36;;;;;;;;;;;;;;;-6.52;94.45;100178.89;1642611;86;20200;-73
2022/01/08 00:58:12;;;;;;;;;;;;;;;-6.55;94.62;100177.94;1630008;87;20092;-72
2022/01/08 01:00:44;;;;;;;;;;;;;;;-6.58;94.46;100172.98;1628012;86;20096;-73
2022/01/08 01:03:15;;;;;;;;;;;;;;;-6.64;94.42;100176.41;1625044;86;21052;-72
2022/01/08 01:05:45;;;;;;;;;;;;;;;-6.70;94.57;100180.14;1629462;85;20120;-72
2022/01/08 01:08:19;;;;;;;;;;;;;;;-6.72;94.85;100182.69;1624252;87;20187;-71
2022/01/08 01:10:47;;;;;;;;;;;;;;;-6.77;94.68;100173.08;1640733;86;20828;-70
2022/01/08 01:13:19;;;;;;;;;;;;;;;-6.79;94.79;100173.27;1631096;86;20120;-71
2022/01/08 01:15:50;;;;;;;;;;;;;;;-6.82;94.77;100171.48;1632261;85;20730;-70
2022/01/08 01:18:19;;;;;;;;;;;;;;;-6.86;94.74;100174.20;1633849;87;20097;-70
2022/01/08 01:20:54;;;;;;;;;;;;;;;-6.90;94.87;100180.42;1635849;86;20152;-70
2022/01/08 01:23:38;;;;;;;;;;;;;;;-6.89;95.47;100179.41;1622634;87;20091;-70
2022/01/08 01:26:03;;;;;;;;;;;;;;;-6.84;96.02;100182.34;1639817;86;20176;-71
2022/01/08 01:42:06;;;;;;;;;;;;;;;-6.58;96.72;100182.32;1637635;87;21339;-72
2022/01/08 01:47:05;;;;;;;;;;;;;;;-6.58;96.53;100175.64;1636639;87;20096;-71
2022/01/08 01:49:36;;;;;;;;;;;;;;;-6.59;96.45;100172.66;1637177;86;20706;-72
2022/01/08 01:52:15;;;;;;;;;;;;;;;-6.62;96.25;100163.69;1635228;86;20124;-72
2022/01/08 01:54:43;;;;;;;;;;;;;;;-6.68;96.02;100159.42;1629301;84;21168;-71
2022/01/08 01:57:16;;;;;;;;;;;;;;;-6.73;95.78;100161.00;1607366;88;20091;-71
2022/01/08 01:59:47;;;;;;;;;;;;;;;-6.79;95.59;100152.41;1631590;87;20121;-71
2022/01/08 02:04:53;;;;;;;;;;;;;;;-6.89;95.54;100148.70;1624519;87;20105;-72
2022/01/08 02:07:23;;;;;;;;;;;;;;;-6.94;95.52;100147.65;1629284;87;20747;-75
2022/01/08 02:09:55;;;;;;;;;;;;;;;-6.98;95.50;100136.52;1629908;86;20439;-73
2022/01/08 02:12:22;;;;;;;;;;;;;;;-7.00;95.56;100142.05;1629451;87;20124;-74
2022/01/08 02:14:58;;;;;;;;;;;;;;;-7.06;95.53;100129.45;1617108;87;20145;-73
2022/01/08 02:17:31;;;;;;;;;;;;;;;-7.08;95.69;100135.98;1617077;87;20187;-74
2022/01/08 02:19:59;;;;;;;;;;;;;;;-7.12;95.81;100131.53;1631409;87;21951;-74
2022/01/08 02:22:41;;;;;;;;;;;;;;;-7.13;95.90;100126.38;1629495;87;20448;-73
2022/01/08 02:25:10;;;;;;;;;;;;;;;-7.18;95.81;100137.61;1624420;88;20108;-72
2022/01/08 02:27:27;;;;;;;;;;;;;;;-7.25;95.70;100136.70;1636215;86;20724;-73
2022/01/08 02:29:57;;;;;;;;;;;;;;;-7.29;95.89;100144.76;1625079;86;20113;-73
2022/01/08 02:32:31;;;;;;;;;;;;;;;-7.30;96.31;100147.61;1629603;87;21147;-73
2022/01/08 02:35:00;;;;;;;;;;;;;;;-7.26;96.82;100148.89;1631346;87;20483;-70
2022/01/08 02:37:30;;;;;;;;;;;;;;;-7.21;97.12;100153.99;1632636;87;20116;-71
2022/01/08 02:40:11;;;;;;;;;;;;;;;-7.18;97.27;100158.13;1631255;87;20146;-71
2022/01/08 02:42:50;;;;;;;;;;;;;;;-7.16;97.50;100156.93;1627522;87;20197;-73
2022/01/08 02:44:57;;;;;;;;;;;;;;;-7.12;97.78;100155.55;1618561;87;21079;-72
2022/01/08 02:47:26;;;;;;;;;;;;;;;-7.10;97.59;100156.70;1628682;87;20121;-72
2022/01/08 02:49:59;;;;;;;;;;;;;;;-7.11;97.36;100146.53;1632881;87;20455;-73
2022/01/08 02:52:28;;;;;;;;;;;;;;;-7.11;97.19;100155.04;1626179;87;20464;-72
2022/01/08 02:54:55;;;;;;;;;;;;;;;-7.16;96.90;100152.93;1632744;87;20155;-73
2022/01/08 02:57:24;;;;;;;;;;;;;;;-7.19;96.88;100149.30;1628082;87;21984;-72
2022/01/08 02:59:52;;;;;;;;;;;;;;;-7.21;96.94;100140.66;1603101;87;20128;-72
2022/01/08 03:02:26;;;;;;;;;;;;;;;-7.23;96.71;100143.19;1609025;87;20172;-71
2022/01/08 03:04:54;;;;;;;;;;;;;;;-7.27;96.74;100147.23;1624588;86;20109;-70
2022/01/08 03:07:21;;;;;;;;;;;;;;;-7.28;97.08;100144.25;1608786;86;20125;-72
2022/01/08 03:09:57;;;;;;;;;;;;;;;-7.27;97.35;100137.39;1626376;86;21125;-74
2022/01/08 03:12:31;;;;;;;;;;;;;;;-7.27;97.33;100129.89;1618859;86;20188;-74
2022/01/08 03:15:00;;;;;;;;;;;;;;;-7.28;97.40;100127.73;1627652;86;20134;-73
2022/01/08 03:17:28;;;;;;;;;;;;;;;-7.32;97.13;100143.28;1630244;87;20153;-73
2022/01/08 03:20:03;;;;;;;;;;;;;;;-7.30;97.57;100149.77;1598442;88;20134;-74
2022/01/08 03:22:29;;;;;;;;;;;;;;;-7.23;98.01;100153.86;1601451;87;21169;-75
2022/01/08 03:25:03;;;;;;;;;;;;;;;-7.23;97.90;100153.35;1599939;89;20095;-74
2022/01/08 03:27:37;;;;;;;;;;;;;;;-7.21;97.89;100158.50;1579992;88;20468;-74
2022/01/08 03:30:09;;;;;;;;;;;;;;;-7.18;98.04;100157.62;1591619;89;20525;-72
2022/01/08 03:32:41;;;;;;;;;;;;;;;-7.15;98.07;100160.42;1606781;88;20127;-72
2022/01/08 03:35:24;;;;;;;;;;;;;;;-7.13;98.05;100159.73;1575962;89;20132;-74
2022/01/08 03:37:39;;;;;;;;;;;;;;;-7.11;98.12;100150.53;1611618;86;20414;-74
2022/01/08 03:40:19;;;;;;;;;;;;;;;-7.05;98.22;100154.30;1606660;88;20423;-74
2022/01/08 03:42:51;;;;;;;;;;;;;;;-7.03;98.18;100157.09;1600788;88;20494;-74
2022/01/08 03:45:18;;;;;;;;;;;;;;;-6.98;98.16;100156.53;1606580;88;20132;-74
2022/01/08 03:50:26;;;;;;;;;;;;;;;-6.92;97.90;100157.59;1629051;87;20108;-73
2022/01/08 03:52:53;;;;;;;;;;;;;;;-6.91;97.73;100150.73;1616250;87;20165;-73
2022/01/08 03:55:20;;;;;;;;;;;;;;;-6.90;97.51;100149.72;1612338;87;20097;-73
2022/01/08 03:57:55;;;;;;;;;;;;;;;-6.89;97.44;100150.05;1639605;86;20117;-73
2022/01/08 04:00:22;;;;;;;;;;;;;;;-6.89;97.35;100139.36;1632300;86;21124;-72
2022/01/08 04:02:52;;;;;;;;;;;;;;;-6.89;97.13;100139.88;1622346;86;20159;-73
2022/01/08 04:05:23;;;;;;;;;;;;;;;-6.89;97.13;100142.55;1588609;87;20181;-72
2022/01/08 04:07:53;;;;;;;;;;;;;;;-6.90;97.13;100130.21;1624605;87;20094;-72
2022/01/08 04:10:26;;;;;;;;;;;;;;;-6.89;97.16;100134.02;1627856;87;20100;-71
2022/01/08 04:12:55;;;;;;;;;;;;;;;-6.87;97.17;100136.00;1631221;87;21201;-69
2022/01/08 04:17:54;;;;;;;;;;;;;;;-6.81;97.17;100131.24;1624520;87;20145;-71
2022/01/08 04:20:24;;;;;;;;;;;;;;;-6.80;97.12;100123.55;1624910;87;22095;-72
2022/01/08 04:22:58;;;;;;;;;;;;;;;-6.77;97.08;100120.50;1602472;88;20161;-71
2022/01/08 04:25:25;;;;;;;;;;;;;;;-6.75;97.04;100128.33;1612525;87;21913;-71
2022/01/08 04:27:57;;;;;;;;;;;;;;;-6.75;97.00;100126.48;1614744;87;20096;-72
2022/01/08 04:30:27;;;;;;;;;;;;;;;-6.73;96.94;100124.45;1594908;88;20144;-72
2022/01/08 04:32:59;;;;;;;;;;;;;;;-6.73;96.95;100120.44;1619513;88;20959;-71
2022/01/08 04:35:29;;;;;;;;;;;;;;;-6.72;97.02;100124.77;1623727;87;20135;-72
2022/01/08 04:37:59;;;;;;;;;;;;;;;-6.71;97.13;100123.75;1613127;87;21251;-72
2022/01/08 04:40:38;;;;;;;;;;;;;;;-6.71;97.10;100118.41;1630381;87;20152;-70
2022/01/08 04:43:10;;;;;;;;;;;;;;;-6.70;97.00;100120.57;1603209;87;20152;-70
2022/01/08 04:45:39;;;;;;;;;;;;;;;-6.72;97.05;100112.75;1621114;87;20838;-70
2022/01/08 04:48:13;;;;;;;;;;;;;;;-6.71;97.03;100121.08;1614775;87;20154;-70
2022/01/08 04:50:40;;;;;;;;;;;;;;;-6.70;96.94;100115.23;1611590;88;20645;-70
2022/01/08 04:53:09;;;;;;;;;;;;;;;-6.70;96.84;100114.72;1570146;89;20105;-70
2022/01/08 04:55:42;;;;;;;;;;;;;;;-6.72;96.67;100119.42;1587493;89;20110;-70
2022/01/08 04:58:16;;;;;;;;;;;;;;;-6.74;96.60;100121.45;1583952;89;20169;-71
2022/01/08 05:00:41;;;;;;;;;;;;;;;-6.77;96.45;100109.83;1618342;86;20458;-70
2022/01/08 05:03:14;;;;;;;;;;;;;;;-6.82;96.27;100114.91;1628467;87;21266;-70
2022/01/08 05:05:42;;;;;;;;;;;;;;;-6.88;95.96;100119.66;1619032;85;20134;-69
2022/01/08 05:08:19;;;;;;;;;;;;;;;-6.95;96.18;100118.80;1608912;88;20149;-77
2022/01/08 05:10:46;;;;;;;;;;;;;;;-7.03;96.13;100121.06;1608611;87;20203;-78
2022/01/08 05:13:32;;;;;;;;;;;;;;;-7.07;96.34;100120.30;1623956;86;20157;-74
2022/01/08 05:15:54;;;;;;;;;;;;;;;-7.12;96.31;100122.70;1618123;87;20816;-73
2022/01/08 05:18:20;;;;;;;;;;;;;;;-7.18;96.33;100126.11;1626554;87;20184;-72
2022/01/08 05:21:09;;;;;;;;;;;;;;;-7.25;96.26;100134.03;1629403;87;20171;-71
2022/01/08 05:23:28;;;;;;;;;;;;;;;-7.24;96.80;100132.20;1626468;87;20168;-73
2022/01/08 05:26:11;;;;;;;;;;;;;;;-7.19;97.24;100137.80;1626250;86;20558;-74
2022/01/08 05:28:32;;;;;;;;;;;;;;;-7.17;97.23;100138.44;1626929;86;21240;-72
2022/01/08 05:31:01;;;;;;;;;;;;;;;-7.19;97.16;100125.80;1630273;86;20148;-73
2022/01/08 05:33:29;;;;;;;;;;;;;;;-7.17;97.28;100137.11;1625179;86;20179;-74
2022/01/08 05:36:03;;;;;;;;;;;;;;;-7.20;97.10;100132.97;1649879;86;20175;-73
2022/01/08 05:38:34;;;;;;;;;;;;;;;-7.21;96.98;100135.82;1633531;86;20160;-72
2022/01/08 05:41:07;;;;;;;;;;;;;;;-7.24;96.69;100137.53;1625036;87;21637;-74
2022/01/08 05:43:38;;;;;;;;;;;;;;;-7.30;96.50;100133.77;1630024;86;20205;-73
2022/01/08 05:46:12;;;;;;;;;;;;;;;-7.34;96.51;100130.64;1629077;87;20484;-73
2022/01/08 05:48:45;;;;;;;;;;;;;;;-7.33;96.58;100131.47;1632445;87;20100;-74
2022/01/08 05:51:11;;;;;;;;;;;;;;;-7.35;96.70;100130.83;1626630;86;20288;-73
2022/01/08 05:53:46;;;;;;;;;;;;;;;-7.29;97.15;100134.09;1628639;86;20196;-78
2022/01/08 05:56:14;;;;;;;;;;;;;;;-7.25;97.19;100137.20;1644625;85;20118;-75
2022/01/08 05:58:47;;;;;;;;;;;;;;;-7.21;97.29;100139.83;1620411;86;20152;-81
2022/01/08 06:01:32;;;;;;;;;;;;;;;-7.21;97.16;100141.16;1642167;86;20100;-78
2022/01/08 06:03:51;;;;;;;;;;;;;;;-7.20;97.04;100145.48;1624734;86;20447;-77
2022/01/08 06:06:23;;;;;;;;;;;;;;;-7.22;96.91;100142.17;1632801;86;21801;-76
2022/01/08 06:08:51;;;;;;;;;;;;;;;-7.24;96.75;100140.20;1630822;85;20423;-73
2022/01/08 06:11:25;;;;;;;;;;;;;;;-7.24;96.92;100143.69;1620390;87;20119;-80
2022/01/08 06:13:56;;;;;;;;;;;;;;;-7.22;97.03;100139.50;1582575;89;20204;-80
2022/01/08 06:16:24;;;;;;;;;;;;;;;-7.20;97.16;100140.14;1600224;87;20193;-76
2022/01/08 06:18:54;;;;;;;;;;;;;;;-7.16;97.36;100126.75;1587740;88;20253;-75
2022/01/08 06:21:27;;;;;;;;;;;;;;;-7.12;97.57;100134.70;1600102;87;20264;-75
2022/01/08 06:23:51;;;;;;;;;;;;;;;-7.06;97.92;100129.95;1610612;87;20137;-76
2022/01/08 06:26:27;;;;;;;;;;;;;;;-6.99;98.18;100132.20;1600531;87;20170;-73
2022/01/08 06:28:53;;;;;;;;;;;;;;;-6.89;98.42;100126.52;1642173;86;20144;-76
2022/01/08 06:31:22;;;;;;;;;;;;;;;-6.80;98.61;100132.89;1612133;86;21861;-81
2022/01/08 06:33:51;;;;;;;;;;;;;;;-6.70;98.64;100129.41;1617137;85;20105;-78
2022/01/08 06:36:22;;;;;;;;;;;;;;;-6.57;98.62;100131.39;1629366;86;20412;-75
2022/01/08 06:38:51;;;;;;;;;;;;;;;-6.46;98.36;100124.71;1630517;85;20209;-78
2022/01/08 06:41:23;;;;;;;;;;;;;;;-6.34;98.13;100129.83;1585261;87;20173;-76
2022/01/08 06:43:57;;;;;;;;;;;;;;;-6.24;97.48;100135.67;1609755;86;21121;-73
2022/01/08 06:46:24;;;;;;;;;;;;;;;-6.14;97.32;100132.16;1601088;86;20209;-80
2022/01/08 06:48:52;;;;;;;;;;;;;;;-6.05;97.00;100135.02;1591684;88;20145;-78
2022/01/08 06:51:25;;;;;;;;;;;;;;;-5.86;96.95;100143.35;1603142;87;20170;-82
2022/01/08 06:53:53;;;;;;;;;;;;;;;-5.57;96.80;100146.30;1609598;87;20164;-82
2022/01/08 06:56:26;;;;;;;;;;;;;;;-5.33;95.29;100146.66;1628881;87;21198;-81
2022/01/08 06:58:51;;;;;;;;;;;;;;;-5.05;93.62;100150.56;1611951;86;20154;-83
2022/01/08 07:01:21;;;;;;;;;;;;;;;-4.71;91.88;100140.28;1587213;87;20137;-80
2022/01/08 07:03:50;;;;;;;;;;;;;;;-4.36;91.19;100140.95;1605745;88;20159;-81
2022/01/08 07:06:22;;;;;;;;;;;;;;;-3.94;90.01;100139.39;1626555;87;20124;-80
2022/01/08 07:08:57;;;;;;;;;;;;;;;-3.51;87.31;100135.22;1629124;87;21206;-83
2022/01/08 07:11:21;;;;;;;;;;;;;;;-3.22;84.14;100137.91;1630351;87;20128;-80
2022/01/08 07:13:47;;;;;;;;;;;;;;;-3.10;83.08;100136.73;1629528;87;20145;-79
2022/01/08 07:16:15;;;;;;;;;;;;;;;-2.98;83.91;100140.41;1602885;88;20140;-79
2022/01/08 07:18:41;;;;;;;;;;;;;;;-2.79;83.55;100133.27;1621002;87;20462;-79
2022/01/08 07:21:14;;;;;;;;;;;;;;;-2.63;80.92;100135.98;1618727;86;21513;-79
2022/01/08 07:23:43;;;;;;;;;;;;;;;-2.57;80.89;100134.59;1597905;88;20145;-79
2022/01/08 07:26:13;;;;;;;;;;;;;;;-2.53;79.09;100138.50;1610599;86;20174;-79
2022/01/08 07:28:51;;;;;;;;;;;;;;;-2.61;78.59;100144.12;1609865;87;20167;-79
2022/01/08 07:31:22;;;;;;;;;;;;;;;-2.59;79.01;100138.53;1599924;86;20134;-77
2022/01/08 07:33:51;;;;;;;;;;;;;;;-2.44;78.52;100143.10;1600373;87;40153;-77
2022/01/08 07:36:20;;;;;;;;;;;;;;;-2.20;78.29;100132.05;1623326;84;20111;-77
2022/01/08 07:38:48;;;;;;;;;;;;;;;-1.94;77.26;100139.09;1627581;87;20103;-78
2022/01/08 07:41:18;;;;;;;;;;;;;;;-1.62;76.27;100135.27;1615738;87;20127;-77
2022/01/08 07:43:54;;;;;;;;;;;;;;;-1.27;75.46;100138.22;1616143;86;20106;-78
2022/01/08 07:46:26;;;;;;;;;;;;;;;-0.91;73.10;100133.84;1624594;86;21000;-77
2022/01/08 07:49:05;;;;;;;;;;;;;;;-0.69;71.65;100133.66;1628729;87;21637;-79
2022/01/08 07:51:40;;;;;;;;;;;;;;;-0.51;69.90;100127.38;1565780;89;20141;-78
2022/01/08 07:54:12;;;;;;;;;;;;;;;-0.41;70.31;100123.59;1590182;88;20141;-77
2022/01/08 07:56:40;;;;;;;;;;;;;;;-0.21;69.01;100121.95;1587744;88;20106;-78
2022/01/08 07:59:09;;;;;;;;;;;;;;;-0.04;67.84;100116.19;1588295;88;21059;-78
2022/01/08 08:01:38;;;;;;;;;;;;;;;0.05;68.15;100117.98;1615369;86;20217;-77
2022/01/08 08:04:07;;;;;;;;;;;;;;;0.28;67.27;100111.26;1628578;88;20132;-76
2022/01/08 08:06:36;;;;;;;;;;;;;;;0.48;65.67;100111.73;1622138;87;20562;-77
2022/01/08 08:09:12;;;;;;;;;;;;;;;0.46;64.39;100109.79;1618792;87;20486;-78
2022/01/08 08:11:38;;;;;;;;;;;;;;;0.35;64.88;100116.02;1616440;86;20174;-78
2022/01/08 08:14:14;;;;;;;;;;;;;;;0.33;63.90;100112.73;1622765;87;20200;-77
2022/01/08 08:16:46;;;;;;;;;;;;;;;0.16;64.32;100109.08;1608531;87;20170;-77
2022/01/08 08:19:14;;;;;;;;;;;;;;;0.20;65.35;100111.61;1577400;89;20193;-76
2022/01/08 08:21:45;;;;;;;;;;;;;;;0.43;64.50;100114.84;1577939;89;20211;-77
2022/01/08 08:24:09;;;;;;;;;;;;;;;0.44;62.70;100114.61;1577027;89;21177;-78
2022/01/08 08:26:35;;;;;;;;;;;;;;;0.41;63.30;100103.45;1574702;89;20495;-78
2022/01/08 08:29:07;;;;;;;;;;;;;;;0.43;62.29;100115.66;1563995;90;20202;-78
2022/01/08 08:31:34;;;;;;;;;;;;;;;0.44;63.70;100102.45;1574662;89;20262;-78
2022/01/08 08:34:00;;;;;;;;;;;;;;;0.73;62.79;100106.03;1574829;89;20604;-76
2022/01/08 08:36:28;;;;;;;;;;;;;;;0.83;60.73;100103.55;1574688;90;21162;-76
2022/01/08 08:38:57;;;;;;;;;;;;;;;0.93;62.03;100094.30;1575388;90;20157;-75
2022/01/08 08:41:26;;;;;;;;;;;;;;;1.04;61.09;100098.03;1574108;89;20141;-77
2022/01/08 08:43:56;;;;;;;;;;;;;;;1.05;60.70;100094.27;1575663;90;20652;-77
2022/01/08 08:46:24;;;;;;;;;;;;;;;0.99;60.27;100087.94;1576796;90;20589;-76
2022/01/08 08:48:50;;;;;;;;;;;;;;;0.87;61.60;100087.14;1575871;89;21154;-76
2022/01/08 08:51:16;;;;;;;;;;;;;;;0.99;61.63;100086.59;1575056;89;20741;-77
2022/01/08 08:53:42;;;;;;;;;;;;;;;1.27;61.50;100087.11;1567625;90;20586;-77
2022/01/08 08:56:09;;;;;;;;;;;;;;;1.65;60.02;100085.63;1571875;90;20372;-76
2022/01/08 08:58:35;;;;;;;;;;;;;;;1.75;57.26;100080.89;1572674;90;20197;-77
2022/01/08 09:01:01;;;;;;;;;;;;;;;1.67;58.58;100080.80;1575122;90;21770;-77
2022/01/08 09:03:27;;;;;;;;;;;;;;;1.83;57.92;100079.96;1573023;89;20162;-77
2022/01/08 09:05:54;;;;;;;;;;;;;;;2.01;57.42;100076.73;1574903;89;20176;-78
2022/01/08 09:08:20;;;;;;;;;;;;;;;2.16;57.43;100079.14;1577573;90;20193;-77
2022/01/08 09:10:48;;;;;;;;;;;;;;;2.22;57.17;100078.16;1572183;90;20165;-78
2022/01/08 09:13:14;;;;;;;;;;;;;;;2.27;57.18;100075.52;1575561;89;21168;-77
2022/01/08 09:15:42;;;;;;;;;;;;;;;2.54;57.35;100070.19;1577378;89;20229;-77
2022/01/08 09:18:09;;;;;;;;;;;;;;;2.88;55.39;100065.48;1567491;89;20167;-79
2022/01/08 09:20:35;;;;;;;;;;;;;;;2.94;53.87;100057.67;1572762;90;20154;-77
2022/01/08 09:23:02;;;;;;;;;;;;;;;3.02;54.64;100061.83;1571032;90;20162;-78
2022/01/08 09:25:28;;;;;;;;;;;;;;;3.14;53.73;100057.63;1568422;90;21980;-77
2022/01/08 09:27:55;;;;;;;;;;;;;;;3.26;52.70;100053.69;1574260;90;20219;-78
2022/01/08 09:30:21;;;;;;;;;;;;;;;3.22;52.05;100040.35;1578326;90;20153;-78
2022/01/08 09:32:47;;;;;;;;;;;;;;;2.98;52.58;100045.77;1577817;89;20479;-77
2022/01/08 09:35:14;;;;;;;;;;;;;;;2.62;52.43;100051.32;1574613;89;20247;-77
2022/01/08 09:37:41;;;;;;;;;;;;;;;2.30;53.09;100055.23;1568319;89;21958;-76
2022/01/08 09:40:11;;;;;;;;;;;;;;;2.05;53.50;100048.91;1571157;90;20161;-77
2022/01/08 09:42:40;;;;;;;;;;;;;;;1.91;53.49;100045.71;1576778;89;20445;-77
2022/01/08 09:45:07;;;;;;;;;;;;;;;1.76;54.13;100041.94;1577836;90;20160;-78
2022/01/08 09:47:34;;;;;;;;;;;;;;;1.70;54.99;100041.59;1576319;89;20163;-78
2022/01/08 09:50:02;;;;;;;;;;;;;;;1.73;53.71;100043.81;1586111;89;21714;-77
2022/01/08 09:52:29;;;;;;;;;;;;;;;1.68;54.17;100049.14;1579695;87;20464;-77
2022/01/08 09:54:56;;;;;;;;;;;;;;;1.84;53.71;100046.94;1624940;86;20154;-77
2022/01/08 09:57:22;;;;;;;;;;;;;;;1.98;52.35;100049.08;1619664;86;20444;-75
2022/01/08 09:59:48;;;;;;;;;;;;;;;1.99;51.95;100026.87;1615142;86;20159;-79
2022/01/08 10:02:17;;;;;;;;;;;;;;;2.02;52.31;100032.33;1613531;87;21487;-78
2022/01/08 10:04:44;;;;;;;;;;;;;;;2.14;53.02;100035.77;1590905;88;20563;-75
2022/01/08 10:07:24;;;;;;;;;;;;;;;2.42;51.85;100020.70;1599687;89;20178;-76
2022/01/08 10:10:13;;;;;;;;;;;;;;;2.33;51.06;100024.38;1595474;88;20106;-76
2022/01/08 10:12:54;;;;;;;;;;;;;;;2.19;52.14;100022.30;1595167;89;20154;-74
2022/01/08 10:18:24;;;;;;;;;;;;;;;2.31;50.54;100019.73;1589733;89;20176;-75
2022/01/08 10:20:53;;;;;;;;;;;;;;;2.33;51.86;100018.95;1599358;88;20127;-78
2022/01/08 10:23:21;;;;;;;;;;;;;;;2.65;51.61;100014.22;1603589;89;20362;-78
2022/01/08 10:26:02;;;;;;;;;;;;;;;3.09;49.14;100019.59;1600696;88;20106;-79
2022/01/08 10:28:44;;;;;;;;;;;;;;;2.98;48.59;100020.83;1621649;86;21986;-73
2022/01/08 10:31:14;;;;;;;;;;;;;;;2.38;49.83;100013.32;1613451;86;20286;-71
2022/01/08 10:33:42;;;;;;;;;;;;;;;2.09;50.95;100015.38;1615009;86;20171;-78
2022/01/08 10:36:08;;;;;;;;;;;;;;;1.74;50.55;100013.76;1606472;86;20128;-74
2022/01/08 10:38:35;;;;;;;;;;;;;;;1.13;51.82;100006.53;1578562;89;20169;-73
2022/01/08 10:41:03;;;;;;;;;;;;;;;0.63;53.40;100007.19;1574099;89;21483;-72
2022/01/08 10:43:32;;;;;;;;;;;;;;;0.20;54.38;100009.00;1579346;89;20185;-73
2022/01/08 10:46:14;;;;;;;;;;;;;;;-0.09;55.95;100007.58;1577791;88;20171;-74
2022/01/08 10:48:46;;;;;;;;;;;;;;;-0.23;56.99;100003.46;1575720;89;20097;-77
2022/01/08 10:51:22;;;;;;;;;;;;;;;-0.30;57.33;100000.05;1563727;89;20178;-76
2022/01/08 10:53:57;;;;;;;;;;;;;;;-0.37;57.92;100010.13;1571360;89;21145;-73
2022/01/08 10:56:36;;;;;;;;;;;;;;;-0.43;58.27;99992.19;1573171;89;20097;-71
2022/01/08 10:59:10;;;;;;;;;;;;;;;-0.46;58.41;100002.09;1575142;89;20268;-71
2022/01/08 11:01:42;;;;;;;;;;;;;;;-0.52;58.98;99994.40;1574995;89;20639;-70
2022/01/08 11:04:10;;;;;;;;;;;;;;;-0.53;59.89;99986.02;1578057;89;20173;-73
2022/01/08 11:06:55;;;;;;;;;;;;;;;-0.44;60.00;99975.17;1575530;89;21119;-72
2022/01/08 11:09:22;;;;;;;;;;;;;;;-0.41;60.15;99973.89;1569806;89;20112;-77
2022/01/08 11:11:50;;;;;;;;;;;;;;;-0.47;59.98;99969.43;1630475;85;20159;-78
2022/01/08 11:14:45;;;;;;;;;;;;;;;-0.53;60.27;99965.79;1632789;86;20126;-81
2022/01/08 11:16:55;;;;;;;;;;;;;;;-0.53;60.87;99964.44;1626927;87;20153;-78
2022/01/08 11:19:19;;;;;;;;;;;;;;;-0.37;60.80;99958.88;1621785;86;21664;-73
2022/01/08 11:21:47;;;;;;;;;;;;;;;-0.25;60.60;99955.66;1631792;86;20209;-76
2022/01/08 11:24:17;;;;;;;;;;;;;;;-0.06;60.37;99955.83;1622363;87;20093;-74
2022/01/08 11:26:43;;;;;;;;;;;;;;;0.10;59.92;99950.20;1622637;86;20199;-72
2022/01/08 11:29:10;;;;;;;;;;;;;;;0.12;59.49;99945.91;1622294;86;20133;-74
2022/01/08 11:31:37;;;;;;;;;;;;;;;0.00;59.45;99933.26;1626474;86;21356;-74
2022/01/08 11:34:08;;;;;;;;;;;;;;;-0.12;59.27;99931.66;1627274;86;20431;-81
2022/01/08 11:36:33;;;;;;;;;;;;;;;-0.20;60.08;99915.83;1626946;87;20521;-83
2022/01/08 11:38:59;;;;;;;;;;;;;;;-0.27;60.28;99908.39;1632548;86;20100;-79
2022/01/08 11:41:28;;;;;;;;;;;;;;;-0.41;60.33;99905.11;1630622;86;20473;-76
2022/01/08 11:43:55;;;;;;;;;;;;;;;-0.53;60.73;99905.11;1629703;86;21876;-76
2022/01/08 11:46:22;;;;;;;;;;;;;;;-0.60;61.24;99909.00;1629730;86;20152;-79
2022/01/08 11:48:50;;;;;;;;;;;;;;;-0.75;61.54;99909.45;1633243;85;20171;-81
2022/01/08 11:51:21;;;;;;;;;;;;;;;-0.86;61.62;99905.69;1631690;86;20104;-72
2022/01/08 11:53:55;;;;;;;;;;;;;;;-0.91;61.93;99910.14;1631038;86;20101;-76
2022/01/08 11:56:30;;;;;;;;;;;;;;;-0.94;62.99;99896.59;1624508;86;21411;-74
2022/01/08 11:59:18;;;;;;;;;;;;;;;-1.00;63.43;99897.00;1607107;86;20199;-79
2022/01/08 12:02:08;;;;;;;;;;;;;;;-1.10;63.68;99897.27;1626363;87;20216;-74
2022/01/08 12:04:35;;;;;;;;;;;;;;;-1.15;63.87;99888.53;1627987;87;20755;-77
2022/01/08 12:07:26;;;;;;;;;;;;;;;-1.17;64.38;99885.28;1625626;87;20171;-79
2022/01/08 12:10:12;;;;;;;;;;;;;;;-1.19;63.98;99875.78;1631953;85;21180;-78
2022/01/08 12:12:52;;;;;;;;;;;;;;;-1.23;64.51;99871.37;1628607;87;20176;-80
2022/01/08 12:15:45;;;;;;;;;;;;;;;-1.25;65.04;99876.18;1630995;85;20097;-79
2022/01/08 12:18:13;;;;;;;;;;;;;;;-1.26;65.09;99870.49;1631400;86;20115;-78
2022/01/08 12:20:43;;;;;;;;;;;;;;;-1.28;65.75;99862.35;1633244;86;20154;-80
2022/01/08 12:23:26;;;;;;;;;;;;;;;-1.27;65.46;99855.91;1633292;86;21145;-79
2022/01/08 12:25:54;;;;;;;;;;;;;;;-1.27;66.36;99849.17;1627441;86;20092;-81
2022/01/08 12:28:53;;;;;;;;;;;;;;;-1.24;66.43;99849.53;1603000;87;20474;-80
2022/01/08 12:31:26;;;;;;;;;;;;;;;-1.24;66.35;99847.37;1605203;87;20485;-81
2022/01/08 12:34:28;;;;;;;;;;;;;;;-1.24;67.37;99848.72;1599535;88;20114;-80
2022/01/08 12:36:57;;;;;;;;;;;;;;;-1.25;67.87;99847.89;1606947;88;21174;-79
2022/01/08 12:39:41;;;;;;;;;;;;;;;-1.29;68.38;99841.33;1599721;88;20421;-79
2022/01/08 12:42:24;;;;;;;;;;;;;;;-1.34;68.52;99839.85;1610233;88;20181;-79
2022/01/08 12:45:03;;;;;;;;;;;;;;;-1.40;68.71;99837.55;1604351;87;20401;-80
2022/01/08 12:47:49;;;;;;;;;;;;;;;-1.43;69.62;99838.54;1614330;85;20148;-80
2022/01/08 12:50:33;;;;;;;;;;;;;;;-1.45;69.92;99836.08;1585051;87;21493;-76
2022/01/08 12:53:10;;;;;;;;;;;;;;;-1.47;70.26;99842.22;1590913;86;20207;-79
2022/01/08 12:55:43;;;;;;;;;;;;;;;-1.48;70.84;99835.72;1610992;86;20093;-80
2022/01/08 12:58:25;;;;;;;;;;;;;;;-1.43;73.08;99835.32;1620177;86;20176;-80
2022/01/08 13:00:58;;;;;;;;;;;;;;;-1.36;72.11;99837.39;1614763;86;20131;-82
2022/01/08 13:03:27;;;;;;;;;;;;;;;-1.34;71.97;99836.63;1611893;86;21525;-81
2022/01/08 13:05:53;;;;;;;;;;;;;;;-1.36;72.54;99829.84;1611493;87;20116;-82
2022/01/08 13:08:23;;;;;;;;;;;;;;;-1.39;72.58;99828.95;1626434;86;20096;-80
2022/01/08 13:10:59;;;;;;;;;;;;;;;-1.44;72.47;99832.86;1616854;86;20989;-81
2022/01/08 13:13:24;;;;;;;;;;;;;;;-1.46;72.89;99832.27;1621630;86;20182;-80
2022/01/08 13:15:52;;;;;;;;;;;;;;;-1.46;73.05;99825.53;1624637;85;21151;-82
2022/01/08 13:18:20;;;;;;;;;;;;;;;-1.46;73.43;99826.88;1638654;86;20096;-79
2022/01/08 13:20:46;;;;;;;;;;;;;;;-1.46;73.63;99825.01;1618752;86;20092;-78
2022/01/08 13:23:13;;;;;;;;;;;;;;;-1.45;74.23;99824.48;1625446;87;20358;-78
2022/01/08 13:25:40;;;;;;;;;;;;;;;-1.46;74.74;99826.36;1614338;86;20155;-79